Pagrindinis puslapis
METAR-TAF:

METAR-TAF

Oro uostai :

Rygos oro uostas

Ryga, Latvija

platuma: 56-55N, ilguma: 023-58E, Aukštis: 10 m

Dabartinis oras

Ataskaita buvo paskelbta 17 minutes, ne 17:50 UTC
Vėjas 7 kt iš Rytų/Šiaurės Rytų
Temperatūra 2°C
Drėgmė 80%
Slėgis 1035 hPa
Matomumas 10 km arba daugiau
Apsiniaukę ne aukštis 1800 ft

METAR: EVRA 191750Z 06007KT 9999 OVC018 02/M01 Q1035 R36/090095 NOSIG

Laikas: 20:07 (18:07 UTC)

Prognozė

Ataskaita buvo paskelbta 1 valandą ir 7 minutes, ne 17:00 UTC
Prognozė galioja nuo 19 metu 18 UTC su 20 metu 18 UTC
Vėjas 5 kt iš Rytų/Šiaurės Rytų
Matomumas 10 km arba daugiau
Su prošvaistėmis ne aukštis 2000 ft

TAF: EVRA 191700Z 1918/2018 06005KT 9999 BKN020

Orai ataskaitas ir orų prognozės (METAR, TAF).

turimą stotys yra geltonos ir raudonos taškus žemėlapyje.

Perkelti pele per norėdami pamatyti stoties vardą.

Tada spustelėkite, norėdami matyti oro stebėjimo ir prognozės.

Norėdami pakeisti žemėlapį: spustelėkite ant žalios mygtukų su juodo kryžiaus žemyn,; žalią mygtuką su brūkšneliu, jei norite nutolinti; arba žalių rodyklių gretimoms žemėlapius.


METAR-TAF: